Time;durP1;ratioP1;P1;durP2;ratioP2;P2;SDS_P1;SDS_P2;PMS_P1;PMS_P2;Temp;Humidity;BMP_temperature;BMP_pressure;BME280_temperature;BME280_humidity;BME280_pressure;Samples;Min_cycle;Max_cycle;Signal;HPM_P1;HPM_P2
2024/01/06 00:01:29;;;;;;;23.40;17.47;;;2.50;99.90;;;;;;5074488;28;20075;-78
2024/01/06 00:03:55;;;;;;;23.90;17.60;;;2.50;99.90;;;;;;5037542;28;20388;-78
2024/01/06 00:06:21;;;;;;;26.90;18.50;;;2.50;99.90;;;;;;5032275;28;20054;-78
2024/01/06 00:08:53;;;;;;;27.33;18.73;;;2.50;99.90;;;;;;5045487;28;20065;-78
2024/01/06 00:11:20;;;;;;;24.47;18.27;;;2.50;99.90;;;;;;5076853;28;20070;-78
2024/01/06 00:13:46;;;;;;;25.53;18.67;;;2.40;99.90;;;;;;5042774;28;20032;-78
2024/01/06 00:16:12;;;;;;;28.97;19.13;;;2.40;99.90;;;;;;5037116;28;20055;-79
2024/01/06 00:18:39;;;;;;;28.27;20.03;;;2.40;99.90;;;;;;5025535;28;20050;-78
2024/01/06 00:21:04;;;;;;;29.93;20.57;;;2.40;99.90;;;;;;5037235;28;20558;-78
2024/01/06 00:23:30;;;;;;;33.33;22.20;;;2.40;99.90;;;;;;4987699;28;20039;-78
2024/01/06 00:25:56;;;;;;;31.30;22.90;;;2.40;99.90;;;;;;4999846;28;20042;-79
2024/01/06 00:28:22;;;;;;;30.63;21.30;;;2.40;99.90;;;;;;5037845;28;20486;-78
2024/01/06 00:30:47;;;;;;;34.60;22.70;;;2.40;99.90;;;;;;5057156;28;20052;-78
2024/01/06 00:33:13;;;;;;;33.70;23.27;;;2.30;99.90;;;;;;5047828;28;20048;-77
2024/01/06 00:35:40;;;;;;;33.70;22.30;;;2.30;99.90;;;;;;5013045;28;20044;-77
2024/01/06 00:38:06;;;;;;;33.97;22.90;;;2.40;99.90;;;;;;5021518;28;20076;-79
2024/01/06 00:40:32;;;;;;;33.33;22.33;;;2.30;99.90;;;;;;5067613;28;21020;-77
2024/01/06 00:42:58;;;;;;;33.47;23.13;;;2.30;99.90;;;;;;5025878;28;20052;-78
2024/01/06 00:45:24;;;;;;;33.30;23.83;;;2.30;99.90;;;;;;5018726;28;20057;-78
2024/01/06 00:47:50;;;;;;;41.63;25.13;;;2.30;99.90;;;;;;5069272;28;20072;-78
2024/01/06 00:50:18;;;;;;;32.83;22.90;;;2.30;99.90;;;;;;5005502;28;20141;-77
2024/01/06 00:52:44;;;;;;;36.37;23.43;;;2.30;99.90;;;;;;5072417;28;20036;-77
2024/01/06 00:55:09;;;;;;;29.30;21.37;;;2.30;99.90;;;;;;5029333;28;20053;-78
2024/01/06 00:57:35;;;;;;;32.70;22.43;;;2.30;99.90;;;;;;5048510;28;20088;-77
2024/01/06 01:00:01;;;;;;;30.30;21.10;;;2.20;99.90;;;;;;5017025;28;20053;-79
2024/01/06 01:02:26;;;;;;;29.50;19.73;;;2.30;99.90;;;;;;5026105;28;20130;-78
2024/01/06 01:04:53;;;;;;;30.13;21.10;;;2.30;99.90;;;;;;5025603;28;20124;-78
2024/01/06 01:07:18;;;;;;;28.83;19.97;;;2.30;99.90;;;;;;5062425;28;20061;-78
2024/01/06 01:09:44;;;;;;;27.93;19.53;;;2.20;99.90;;;;;;5003203;28;20084;-78
2024/01/06 01:12:10;;;;;;;29.67;20.20;;;2.20;99.90;;;;;;5023402;28;20095;-79
2024/01/06 01:14:35;;;;;;;30.17;19.70;;;2.20;99.90;;;;;;5039320;28;20050;-78
2024/01/06 01:17:01;;;;;;;29.57;20.90;;;2.10;99.90;;;;;;5069441;28;20515;-78
2024/01/06 01:19:27;;;;;;;31.70;19.90;;;2.10;99.90;;;;;;5053589;28;20134;-78
2024/01/06 01:21:55;;;;;;;29.87;20.53;;;2.10;99.90;;;;;;5004649;28;20050;-78
2024/01/06 01:24:22;;;;;;;29.40;18.80;;;2.10;99.90;;;;;;5016191;28;20043;-79
2024/01/06 01:26:48;;;;;;;30.47;19.83;;;2.10;99.90;;;;;;4999960;28;20075;-77
2024/01/06 01:29:13;;;;;;;32.17;21.33;;;2.20;99.90;;;;;;5059734;28;20050;-78
2024/01/06 01:31:39;;;;;;;32.67;20.20;;;2.20;99.90;;;;;;5044167;28;20080;-78
2024/01/06 01:34:05;;;;;;;32.97;20.63;;;2.10;99.90;;;;;;5030080;28;20028;-78
2024/01/06 01:36:30;;;;;;;33.50;21.77;;;2.10;99.90;;;;;;5021387;28;20050;-77
2024/01/06 01:38:56;;;;;;;28.80;20.23;;;2.10;99.90;;;;;;5041336;28;20042;-77
2024/01/06 01:41:22;;;;;;;30.63;20.00;;;2.20;99.90;;;;;;5067473;28;20071;-78
2024/01/06 01:43:47;;;;;;;28.47;20.37;;;2.20;99.90;;;;;;5024377;28;20051;-78
2024/01/06 01:46:13;;;;;;;30.53;21.37;;;2.10;99.90;;;;;;5026232;28;20075;-78
2024/01/06 01:48:39;;;;;;;29.67;19.67;;;2.10;99.90;;;;;;5044288;28;20042;-78
2024/01/06 01:51:07;;;;;;;28.20;19.40;;;2.10;99.90;;;;;;5058105;28;20108;-78
2024/01/06 01:53:33;;;;;;;28.83;20.17;;;2.10;99.90;;;;;;5045014;28;20161;-78
2024/01/06 01:55:59;;;;;;;29.03;20.57;;;2.10;99.90;;;;;;5044137;28;20062;-78
2024/01/06 01:58:25;;;;;;;29.93;20.87;;;2.10;99.90;;;;;;5064470;28;20048;-78
2024/01/06 02:00:51;;;;;;;27.43;18.27;;;2.10;99.90;;;;;;5016756;28;20058;-78
2024/01/06 02:03:17;;;;;;;28.80;19.23;;;2.10;99.90;;;;;;5010649;28;20440;-78
2024/01/06 02:05:42;;;;;;;27.07;19.20;;;2.10;99.90;;;;;;5044188;28;20406;-78
2024/01/06 02:08:08;;;;;;;25.93;17.43;;;2.10;99.90;;;;;;5051553;28;20042;-78
2024/01/06 02:10:34;;;;;;;26.53;18.43;;;2.10;99.90;;;;;;4995242;28;20043;-76
2024/01/06 02:13:12;;;;;;;27.67;18.00;;;2.10;99.90;;;;;;5070248;28;20036;-77
2024/01/06 02:15:38;;;;;;;20.63;15.03;;;2.00;99.90;;;;;;5030873;28;20040;-76
2024/01/06 02:18:04;;;;;;;20.97;14.93;;;2.10;99.90;;;;;;5026774;28;20106;-77
2024/01/06 02:20:31;;;;;;;21.40;15.13;;;2.00;99.90;;;;;;5072383;28;20044;-78
2024/01/06 02:22:58;;;;;;;20.73;14.80;;;2.00;99.90;;;;;;5011045;28;20049;-78
2024/01/06 02:25:24;;;;;;;21.57;14.97;;;2.00;99.90;;;;;;5045686;28;20097;-78
2024/01/06 02:27:50;;;;;;;20.20;15.30;;;2.00;99.90;;;;;;5068367;28;20046;-78
2024/01/06 02:30:15;;;;;;;20.80;15.13;;;2.00;99.90;;;;;;4997862;28;20042;-78
2024/01/06 02:32:41;;;;;;;27.53;17.47;;;2.00;99.90;;;;;;5050018;28;20081;-78
2024/01/06 02:35:07;;;;;;;24.93;17.73;;;1.90;99.90;;;;;;5070265;28;20462;-78
2024/01/06 02:37:33;;;;;;;24.97;16.70;;;1.90;99.90;;;;;;5043184;28;20044;-78
2024/01/06 02:39:58;;;;;;;27.90;18.00;;;1.90;99.90;;;;;;5052297;28;20053;-78
2024/01/06 02:42:25;;;;;;;26.00;18.43;;;1.80;99.90;;;;;;5048644;28;20065;-78
2024/01/06 02:44:51;;;;;;;32.47;20.03;;;1.80;99.90;;;;;;5074853;28;20048;-78
2024/01/06 02:47:17;;;;;;;29.83;19.77;;;1.80;99.90;;;;;;5019207;28;20046;-77
2024/01/06 02:49:43;;;;;;;31.83;20.97;;;1.80;99.90;;;;;;5066874;28;20050;-78
2024/01/06 02:52:08;;;;;;;32.80;21.03;;;1.80;99.90;;;;;;5025863;28;20073;-79
2024/01/06 02:54:34;;;;;;;33.60;21.10;;;1.80;99.90;;;;;;5022395;28;20044;-78
2024/01/06 02:56:59;;;;;;;32.23;20.47;;;1.80;99.90;;;;;;5055274;28;20592;-79
2024/01/06 02:59:25;;;;;;;26.17;17.57;;;1.80;99.90;;;;;;5062991;28;20398;-78
2024/01/06 03:01:51;;;;;;;32.00;19.67;;;1.80;99.90;;;;;;5016821;28;20057;-78
2024/01/06 03:04:17;;;;;;;26.57;18.53;;;1.80;99.90;;;;;;5049713;28;20119;-78
2024/01/06 03:06:42;;;;;;;31.67;19.33;;;1.80;99.90;;;;;;5025162;28;20086;-79
2024/01/06 03:09:08;;;;;;;34.03;20.33;;;1.80;99.90;;;;;;5035115;28;20059;-77
2024/01/06 03:11:34;;;;;;;31.37;20.30;;;1.80;99.90;;;;;;5033085;28;20077;-77
2024/01/06 03:14:00;;;;;;;29.43;17.83;;;1.70;99.90;;;;;;5064106;28;20040;-78
2024/01/06 03:16:25;;;;;;;29.80;19.27;;;1.80;99.90;;;;;;5005710;28;20126;-77
2024/01/06 03:18:51;;;;;;;30.97;19.27;;;1.80;99.90;;;;;;5040009;28;20499;-78
2024/01/06 03:21:18;;;;;;;30.60;19.20;;;1.70;99.90;;;;;;5045443;28;20140;-79
2024/01/06 03:23:43;;;;;;;33.17;20.70;;;1.70;99.90;;;;;;5023461;28;20827;-78
2024/01/06 03:26:09;;;;;;;27.70;18.37;;;1.70;99.90;;;;;;5000418;28;20042;-78
2024/01/06 03:28:35;;;;;;;27.80;18.20;;;1.80;99.90;;;;;;5054489;28;20062;-78
2024/01/06 03:31:00;;;;;;;26.07;18.13;;;1.70;99.90;;;;;;5045794;28;20042;-78
2024/01/06 03:33:26;;;;;;;27.73;17.17;;;1.70;99.90;;;;;;5006483;28;20039;-78
2024/01/06 03:35:52;;;;;;;25.63;17.53;;;1.70;99.90;;;;;;5066028;28;20047;-78
2024/01/06 03:38:17;;;;;;;31.43;18.23;;;1.70;99.90;;;;;;4997786;28;20397;-78
2024/01/06 03:40:43;;;;;;;29.37;19.40;;;1.60;99.90;;;;;;5057409;28;20081;-78
2024/01/06 03:43:09;;;;;;;30.00;18.00;;;1.60;99.90;;;;;;5025646;28;20046;-78
2024/01/06 03:45:34;;;;;;;28.90;18.33;;;1.60;99.90;;;;;;5071107;28;20054;-78
2024/01/06 03:48:00;;;;;;;28.30;17.40;;;1.60;99.90;;;;;;5075674;28;20044;-78
2024/01/06 03:50:26;;;;;;;27.97;18.53;;;1.60;99.90;;;;;;4989400;28;20141;-78
2024/01/06 03:52:51;;;;;;;29.73;19.33;;;1.60;99.90;;;;;;5054699;28;20130;-77
2024/01/06 03:55:17;;;;;;;31.70;19.10;;;1.60;99.90;;;;;;5044216;28;20407;-77
2024/01/06 03:57:43;;;;;;;28.77;18.43;;;1.60;99.90;;;;;;5050332;28;20083;-78
2024/01/06 04:00:09;;;;;;;30.53;18.67;;;1.50;99.90;;;;;;5042788;28;20139;-78
2024/01/06 04:02:34;;;;;;;28.07;18.73;;;1.60;99.90;;;;;;5025553;28;20077;-77
2024/01/06 04:05:00;;;;;;;27.97;17.97;;;1.60;99.90;;;;;;5034470;28;20038;-78
2024/01/06 04:07:26;;;;;;;29.27;18.73;;;1.60;99.90;;;;;;5063581;28;20040;-77
2024/01/06 04:09:52;;;;;;;26.03;18.53;;;1.60;99.90;;;;;;5048050;28;20047;-78
2024/01/06 04:12:18;;;;;;;34.23;18.70;;;1.50;99.90;;;;;;5032159;28;20061;-78
2024/01/06 04:14:43;;;;;;;28.47;19.73;;;1.50;99.90;;;;;;5051782;28;20043;-78
2024/01/06 04:17:09;;;;;;;27.93;18.17;;;1.50;99.90;;;;;;5020209;28;20064;-78
2024/01/06 04:19:34;;;;;;;25.80;18.50;;;1.50;99.90;;;;;;5022488;28;20089;-78
2024/01/06 04:22:00;;;;;;;29.77;18.77;;;1.60;99.90;;;;;;5059030;28;20053;-79
2024/01/06 04:24:26;;;;;;;26.00;17.57;;;1.50;99.90;;;;;;5034143;28;20042;-76
2024/01/06 04:26:52;;;;;;;26.23;17.23;;;1.60;99.90;;;;;;5037801;28;20107;-79
2024/01/06 04:29:17;;;;;;;28.57;18.20;;;1.60;99.90;;;;;;5018428;28;20047;-78
2024/01/06 04:31:43;;;;;;;30.43;18.73;;;1.50;99.90;;;;;;5060490;28;20498;-78
2024/01/06 04:34:09;;;;;;;25.90;17.33;;;1.50;99.90;;;;;;5053714;28;20047;-79
2024/01/06 04:36:34;;;;;;;25.63;16.77;;;1.50;99.90;;;;;;5049705;28;20126;-77
2024/01/06 04:39:00;;;;;;;25.83;17.37;;;1.50;99.90;;;;;;5005698;28;20031;-78
2024/01/06 04:41:26;;;;;;;25.73;17.57;;;1.50;99.90;;;;;;5025299;28;20058;-78
2024/01/06 04:43:51;;;;;;;23.17;15.80;;;1.40;99.90;;;;;;5017773;28;20495;-78
2024/01/06 04:46:17;;;;;;;24.30;16.93;;;1.50;99.90;;;;;;5034851;28;20044;-78
2024/01/06 04:48:43;;;;;;;27.43;17.17;;;1.50;99.90;;;;;;5032247;28;20052;-78
2024/01/06 04:51:10;;;;;;;29.07;17.97;;;1.40;99.90;;;;;;5049367;28;20069;-78
2024/01/06 04:53:38;;;;;;;24.57;16.63;;;1.30;99.90;;;;;;5021639;28;20127;-77
2024/01/06 04:56:04;;;;;;;26.33;16.43;;;1.40;99.90;;;;;;5040274;28;20176;-78
2024/01/06 04:58:30;;;;;;;21.77;14.73;;;1.40;99.90;;;;;;5042597;28;20085;-77
2024/01/06 05:00:56;;;;;;;23.50;15.77;;;1.50;99.90;;;;;;5064809;28;20167;-78
2024/01/06 05:03:22;;;;;;;22.80;16.10;;;1.40;99.90;;;;;;5021410;28;20046;-79
2024/01/06 05:05:48;;;;;;;25.77;16.83;;;1.40;99.90;;;;;;5041712;28;20114;-78
2024/01/06 05:08:13;;;;;;;23.30;15.50;;;1.40;99.90;;;;;;5082791;28;20098;-78
2024/01/06 05:10:39;;;;;;;24.90;16.13;;;1.30;99.90;;;;;;5015536;28;20046;-79
2024/01/06 05:13:05;;;;;;;24.30;16.60;;;1.40;99.90;;;;;;5048213;28;20058;-78
2024/01/06 05:15:31;;;;;;;22.80;16.03;;;1.40;99.90;;;;;;5054374;28;20039;-78
2024/01/06 05:17:56;;;;;;;29.23;18.30;;;1.30;99.90;;;;;;4992359;28;20161;-78
2024/01/06 05:20:23;;;;;;;32.07;18.53;;;1.30;99.90;;;;;;5008469;28;20060;-78
2024/01/06 05:22:48;;;;;;;25.07;16.70;;;1.30;99.90;;;;;;5020122;28;20054;-79
2024/01/06 05:25:14;;;;;;;24.67;17.33;;;1.30;99.90;;;;;;5064354;28;20044;-78
2024/01/06 05:27:40;;;;;;;24.33;17.60;;;1.30;99.90;;;;;;5012876;28;20049;-78
2024/01/06 05:30:06;;;;;;;22.60;17.50;;;1.30;99.90;;;;;;5013287;28;20046;-79
2024/01/06 05:32:32;;;;;;;28.07;17.10;;;1.40;99.90;;;;;;5066822;28;20504;-78
2024/01/06 05:34:57;;;;;;;25.00;16.17;;;1.40;99.90;;;;;;5001498;28;20053;-79
2024/01/06 05:37:23;;;;;;;23.60;16.30;;;1.40;99.90;;;;;;5064853;28;20039;-78
2024/01/06 05:39:49;;;;;;;21.77;16.07;;;1.40;99.90;;;;;;5017561;28;20057;-78
2024/01/06 05:42:15;;;;;;;23.20;15.80;;;1.40;99.90;;;;;;4983757;28;20058;-78
2024/01/06 05:44:41;;;;;;;23.83;14.93;;;1.30;99.90;;;;;;5025737;28;20040;-77
2024/01/06 05:47:08;;;;;;;25.03;15.80;;;1.30;99.90;;;;;;5061241;28;20558;-78
2024/01/06 05:49:34;;;;;;;20.83;15.40;;;1.30;99.90;;;;;;5011285;28;20054;-78
2024/01/06 05:51:59;;;;;;;24.70;15.93;;;1.30;99.90;;;;;;5041447;28;20061;-78
2024/01/06 05:54:25;;;;;;;28.50;18.07;;;1.30;99.90;;;;;;5008204;28;20044;-79
2024/01/06 05:56:51;;;;;;;28.37;17.43;;;1.20;99.90;;;;;;5041667;28;20142;-78
2024/01/06 05:59:17;;;;;;;26.57;17.27;;;1.20;99.90;;;;;;5069135;28;20047;-78
2024/01/06 06:01:43;;;;;;;25.47;17.20;;;1.20;99.90;;;;;;5034796;28;20288;-79
2024/01/06 06:04:12;;;;;;;24.70;16.50;;;1.20;99.90;;;;;;5096753;28;20044;-78
2024/01/06 06:06:38;;;;;;;22.03;16.00;;;1.30;99.90;;;;;;4998198;28;20596;-78
2024/01/06 06:09:06;;;;;;;23.33;15.93;;;1.30;99.90;;;;;;5057924;28;20119;-79
2024/01/06 06:11:33;;;;;;;24.87;16.87;;;1.20;99.90;;;;;;5007280;28;20054;-78
2024/01/06 06:13:59;;;;;;;26.23;16.40;;;1.20;99.90;;;;;;5048298;28;20048;-78
2024/01/06 06:16:25;;;;;;;25.63;16.53;;;1.20;99.90;;;;;;5030393;28;20061;-78
2024/01/06 06:18:50;;;;;;;26.97;16.60;;;1.20;99.90;;;;;;5055125;28;20054;-78
2024/01/06 06:21:16;;;;;;;24.13;16.53;;;1.20;99.90;;;;;;5000162;28;20515;-79
2024/01/06 06:23:41;;;;;;;23.60;16.00;;;1.30;99.90;;;;;;5042514;28;20066;-83
2024/01/06 06:26:08;;;;;;;23.53;16.00;;;1.20;99.90;;;;;;5028749;28;20512;-83
2024/01/06 06:28:34;;;;;;;20.63;14.70;;;1.30;99.90;;;;;;5034357;28;20068;-82
2024/01/06 06:31:01;;;;;;;22.23;15.50;;;1.30;99.90;;;;;;5039206;28;20046;-83
2024/01/06 06:33:27;;;;;;;21.00;15.60;;;1.20;99.90;;;;;;5021281;28;20046;-83
2024/01/06 06:35:53;;;;;;;20.67;15.00;;;1.20;99.90;;;;;;5048714;28;20123;-81
2024/01/06 06:38:18;;;;;;;21.30;14.93;;;1.30;99.90;;;;;;4999572;28;20081;-79
2024/01/06 06:40:44;;;;;;;22.40;15.27;;;1.30;99.90;;;;;;5049853;28;20044;-81
2024/01/06 06:43:10;;;;;;;19.47;14.90;;;1.30;99.90;;;;;;5077991;28;20059;-80
2024/01/06 06:45:35;;;;;;;20.00;15.47;;;1.30;99.90;;;;;;5025211;28;20093;-81
2024/01/06 06:48:01;;;;;;;21.43;14.67;;;1.30;99.90;;;;;;5047119;28;20043;-80
2024/01/06 06:50:27;;;;;;;16.83;13.17;;;1.30;99.90;;;;;;5073751;28;20099;-82
2024/01/06 06:52:52;;;;;;;19.47;13.80;;;1.40;99.90;;;;;;5022622;28;20065;-81
2024/01/06 06:55:19;;;;;;;17.83;13.30;;;1.40;99.90;;;;;;5069101;28;20051;-82
2024/01/06 06:57:45;;;;;;;19.60;14.27;;;1.40;99.90;;;;;;5025028;28;20076;-80
2024/01/06 07:00:11;;;;;;;20.53;15.07;;;1.30;99.90;;;;;;5061361;28;20042;-81
2024/01/06 07:02:37;;;;;;;20.70;15.67;;;1.30;99.90;;;;;;5065654;28;20268;-80
2024/01/06 07:05:06;;;;;;;19.60;14.30;;;1.30;99.90;;;;;;5014030;28;20047;-82
2024/01/06 07:07:33;;;;;;;21.60;14.93;;;1.30;99.90;;;;;;5064230;28;20090;-80
2024/01/06 07:10:04;;;;;;;21.03;15.60;;;1.30;99.90;;;;;;4985251;28;20048;-83
2024/01/06 07:12:33;;;;;;;21.08;14.35;;;1.30;99.90;;;;;;5009103;28;20454;-80
2024/01/06 07:14:59;;;;;;;19.53;14.80;;;1.30;99.90;;;;;;5077515;28;20040;-81
2024/01/06 07:17:25;;;;;;;19.33;15.00;;;1.30;99.90;;;;;;5048392;28;20056;-80
2024/01/06 07:19:51;;;;;;;21.53;15.70;;;1.30;99.90;;;;;;5024010;28;20059;-80
2024/01/06 07:22:18;;;;;;;20.07;15.27;;;1.30;99.90;;;;;;5047693;28;20036;-79
2024/01/06 07:24:44;;;;;;;19.93;15.03;;;1.20;99.90;;;;;;5030694;28;20055;-79
2024/01/06 07:27:09;;;;;;;19.70;14.37;;;1.20;99.90;;;;;;5074913;28;20055;-78
2024/01/06 07:29:35;;;;;;;20.43;15.33;;;1.20;99.90;;;;;;5025868;28;20051;-78
2024/01/06 07:32:01;;;;;;;20.30;15.33;;;1.20;99.90;;;;;;5065012;28;20100;-79
2024/01/06 07:34:27;;;;;;;22.30;15.60;;;1.20;99.90;;;;;;5089314;28;20131;-79
2024/01/06 07:36:53;;;;;;;19.23;14.23;;;1.20;99.90;;;;;;5001437;28;20041;-80
2024/01/06 07:39:18;;;;;;;18.23;13.50;;;1.30;99.90;;;;;;5006681;28;20111;-80
2024/01/06 07:41:46;;;;;;;18.97;14.40;;;1.20;99.90;;;;;;5050087;28;20493;-80
2024/01/06 07:44:12;;;;;;;17.30;13.80;;;1.20;99.90;;;;;;5015358;28;20119;-80
2024/01/06 07:46:40;;;;;;;18.00;14.10;;;1.30;99.90;;;;;;5016645;28;20651;-80
2024/01/06 07:49:06;;;;;;;19.43;14.70;;;1.20;99.90;;;;;;4997075;28;20058;-80
2024/01/06 07:51:34;;;;;;;19.70;14.17;;;1.20;99.90;;;;;;5022509;28;20050;-83
2024/01/06 07:53:59;;;;;;;19.77;14.87;;;1.30;99.90;;;;;;5033483;28;20050;-82
2024/01/06 07:56:25;;;;;;;19.07;14.03;;;1.20;99.90;;;;;;5026715;28;20050;-82
2024/01/06 07:58:52;;;;;;;17.73;13.63;;;1.20;99.90;;;;;;5010109;28;20046;-81
2024/01/06 08:01:18;;;;;;;18.30;13.67;;;1.20;99.90;;;;;;5007878;28;20058;-82
2024/01/06 08:03:44;;;;;;;16.57;13.40;;;1.20;99.90;;;;;;5056658;28;20125;-82
2024/01/06 08:06:10;;;;;;;17.17;12.67;;;1.20;99.90;;;;;;5012231;28;20114;-83
2024/01/06 08:08:36;;;;;;;18.63;13.53;;;1.20;99.90;;;;;;5059298;28;20134;-82
2024/01/06 08:11:02;;;;;;;16.97;13.03;;;1.20;99.90;;;;;;5064198;28;20611;-82
2024/01/06 08:13:27;;;;;;;17.87;13.70;;;1.20;99.90;;;;;;5041949;28;20414;-83
2024/01/06 08:15:53;;;;;;;18.80;14.50;;;1.20;99.90;;;;;;5027076;28;20541;-82
2024/01/06 08:18:20;;;;;;;19.23;14.03;;;1.20;99.90;;;;;;5048736;28;20113;-84
2024/01/06 08:20:46;;;;;;;19.00;14.60;;;1.20;99.90;;;;;;5044768;28;20523;-85
2024/01/06 08:23:11;;;;;;;18.83;14.27;;;1.10;99.90;;;;;;5071211;28;20044;-83
2024/01/06 08:25:37;;;;;;;19.00;14.17;;;1.10;99.90;;;;;;4995025;28;20076;-83
2024/01/06 08:28:03;;;;;;;18.40;14.33;;;1.10;99.90;;;;;;5014377;28;20067;-83
2024/01/06 08:30:29;;;;;;;19.37;14.07;;;1.20;99.90;;;;;;5023428;28;20368;-84
2024/01/06 08:32:55;;;;;;;20.10;15.20;;;1.20;99.90;;;;;;5055947;28;20042;-83
2024/01/06 08:35:20;;;;;;;19.80;14.27;;;1.20;99.90;;;;;;5036076;28;20127;-81
2024/01/06 08:37:46;;;;;;;20.87;15.10;;;1.20;99.90;;;;;;5005414;28;20560;-82
2024/01/06 08:40:12;;;;;;;20.10;14.07;;;1.20;99.90;;;;;;5061931;28;20036;-83
2024/01/06 08:42:38;;;;;;;18.80;14.90;;;1.20;99.90;;;;;;5015769;28;20054;-83
2024/01/06 08:45:04;;;;;;;18.83;14.63;;;1.20;99.90;;;;;;5047863;28;20046;-83
2024/01/06 08:47:31;;;;;;;18.63;14.53;;;1.20;99.90;;;;;;5011979;28;20047;-84
2024/01/06 08:49:56;;;;;;;19.40;14.27;;;1.30;99.90;;;;;;5043880;28;20093;-85
2024/01/06 08:52:22;;;;;;;22.03;14.97;;;1.30;99.90;;;;;;5037183;28;20042;-84
2024/01/06 08:54:49;;;;;;;20.13;14.77;;;1.30;99.90;;;;;;5077063;28;20043;-83
2024/01/06 08:57:15;;;;;;;19.53;14.93;;;1.30;99.90;;;;;;5019655;28;20059;-84
2024/01/06 08:59:41;;;;;;;19.53;14.60;;;1.30;99.90;;;;;;5038778;28;20064;-85
2024/01/06 09:02:07;;;;;;;21.07;14.73;;;1.30;99.90;;;;;;5062151;28;20042;-85
2024/01/06 09:04:33;;;;;;;18.63;14.10;;;1.30;99.90;;;;;;5013523;28;20082;-85
2024/01/06 09:06:58;;;;;;;19.10;14.27;;;1.30;99.90;;;;;;5072673;28;20062;-85
2024/01/06 09:09:24;;;;;;;17.90;13.90;;;1.40;99.90;;;;;;5075717;28;20573;-84
2024/01/06 09:11:50;;;;;;;18.53;14.30;;;1.40;99.90;;;;;;5039908;28;20044;-85
2024/01/06 09:14:19;;;;;;;21.43;14.17;;;1.40;99.90;;;;;;5031092;28;20058;-83
2024/01/06 09:16:44;;;;;;;19.60;13.93;;;1.50;99.90;;;;;;5048544;28;20065;-84
2024/01/06 09:19:10;;;;;;;18.97;14.30;;;1.40;99.90;;;;;;4993146;28;20461;-83
2024/01/06 09:21:36;;;;;;;20.67;15.40;;;1.40;99.90;;;;;;5026967;28;20046;-84
2024/01/06 09:24:06;;;;;;;20.37;15.20;;;1.40;99.90;;;;;;5039829;28;20050;-84
2024/01/06 09:26:34;;;;;;;20.63;15.37;;;1.40;99.90;;;;;;5007105;28;20054;-84
2024/01/06 09:29:01;;;;;;;21.00;15.43;;;1.40;99.90;;;;;;5022273;28;20514;-85
2024/01/06 09:31:27;;;;;;;22.63;15.97;;;1.40;99.90;;;;;;5037803;28;20052;-86
2024/01/06 09:33:52;;;;;;;22.70;16.10;;;1.40;99.90;;;;;;5088051;28;20085;-87
2024/01/06 09:36:18;;;;;;;21.60;15.73;;;1.40;99.90;;;;;;5037692;28;20044;-84
2024/01/06 09:38:44;;;;;;;23.40;16.33;;;1.40;99.90;;;;;;5017936;28;20143;-86
2024/01/06 09:41:10;;;;;;;24.40;16.50;;;1.30;99.90;;;;;;5071269;28;20161;-85
2024/01/06 09:43:37;;;;;;;24.67;17.00;;;1.30;99.90;;;;;;5016553;28;20039;-86
2024/01/06 09:46:14;;;;;;;23.37;16.70;;;1.30;99.90;;;;;;5034468;28;20043;-87
2024/01/06 09:48:41;;;;;;;24.10;16.83;;;1.30;99.90;;;;;;5028678;28;20235;-86
2024/01/06 09:51:10;;;;;;;21.63;15.07;;;1.40;99.90;;;;;;5016582;28;20123;-85
2024/01/06 09:53:49;;;;;;;20.30;16.13;;;1.40;99.90;;;;;;5035498;28;20123;-85
2024/01/06 09:56:17;;;;;;;22.07;15.90;;;1.40;99.90;;;;;;5073057;28;20167;-85
2024/01/06 09:58:44;;;;;;;22.80;16.33;;;1.40;99.90;;;;;;5038205;28;20044;-85
2024/01/06 10:01:11;;;;;;;21.83;15.33;;;1.40;99.90;;;;;;5029309;28;20047;-85
2024/01/06 10:03:38;;;;;;;21.93;15.67;;;1.40;99.90;;;;;;5045835;28;20095;-86
2024/01/06 10:06:04;;;;;;;23.40;16.97;;;1.40;99.90;;;;;;5019405;28;20042;-88
2024/01/06 10:08:33;;;;;;;23.67;16.10;;;1.40;99.90;;;;;;5040556;28;20042;-87
2024/01/06 10:11:00;;;;;;;25.20;17.67;;;1.40;99.90;;;;;;5068202;28;20070;-85
2024/01/06 10:13:27;;;;;;;23.40;16.87;;;1.40;99.90;;;;;;5046034;28;20043;-86
2024/01/06 10:15:53;;;;;;;22.67;15.83;;;1.40;99.90;;;;;;5046737;28;20051;-86
2024/01/06 10:18:19;;;;;;;25.07;16.50;;;1.50;99.90;;;;;;5019811;28;20049;-85
2024/01/06 10:20:47;;;;;;;21.73;16.27;;;1.50;99.90;;;;;;5041350;28;20138;-83
2024/01/06 10:23:13;;;;;;;22.57;16.17;;;1.50;99.90;;;;;;5010520;28;20041;-83
2024/01/06 10:25:42;;;;;;;22.33;16.23;;;1.50;99.90;;;;;;5050325;28;20046;-85
2024/01/06 10:28:13;;;;;;;21.37;15.87;;;1.50;99.90;;;;;;5042159;28;20051;-85
2024/01/06 10:30:39;;;;;;;24.40;17.00;;;1.50;99.90;;;;;;5003917;28;20429;-86
2024/01/06 10:33:14;;;;;;;21.70;16.10;;;1.50;99.90;;;;;;5056215;28;20103;-85
2024/01/06 10:35:40;;;;;;;20.13;15.47;;;1.60;99.90;;;;;;5080015;28;20074;-84
2024/01/06 10:38:07;;;;;;;21.60;15.93;;;1.50;99.90;;;;;;5052444;28;20125;-84
2024/01/06 10:40:33;;;;;;;20.30;15.27;;;1.60;99.90;;;;;;5038994;28;20124;-85
2024/01/06 10:43:00;;;;;;;20.63;15.83;;;1.60;99.90;;;;;;5039177;28;20047;-85
2024/01/06 10:45:28;;;;;;;20.90;14.83;;;1.60;99.90;;;;;;5078333;28;20044;-85
2024/01/06 10:47:55;;;;;;;19.40;15.43;;;1.60;99.90;;;;;;5048966;28;20043;-86
2024/01/06 10:50:22;;;;;;;19.27;14.03;;;1.60;99.90;;;;;;5048803;28;20038;-85
2024/01/06 10:52:48;;;;;;;20.53;14.53;;;1.70;99.90;;;;;;5021288;28;20044;-86
2024/01/06 10:55:17;;;;;;;21.27;15.30;;;1.60;99.90;;;;;;5032498;28;20049;-85
2024/01/06 10:57:46;;;;;;;21.77;14.47;;;1.50;99.90;;;;;;5040601;28;20098;-84
2024/01/06 11:00:13;;;;;;;21.67;15.97;;;1.60;99.90;;;;;;5063693;28;20069;-86
2024/01/06 11:02:42;;;;;;;22.30;15.60;;;1.60;99.90;;;;;;5027321;28;20057;-86
2024/01/06 11:05:10;;;;;;;19.93;15.30;;;1.60;99.90;;;;;;5072073;28;20107;-86
2024/01/06 11:07:37;;;;;;;20.23;13.83;;;1.60;99.90;;;;;;5030322;28;20078;-87
2024/01/06 11:10:08;;;;;;;21.40;15.20;;;1.60;99.90;;;;;;5050758;28;20054;-86
2024/01/06 11:12:33;;;;;;;21.83;15.27;;;1.60;99.90;;;;;;5046563;28;20061;-86
2024/01/06 11:14:59;;;;;;;20.33;14.93;;;1.60;99.90;;;;;;4997080;28;20046;-86
2024/01/06 11:17:55;;;;;;;22.43;14.97;;;1.60;99.90;;;;;;5030446;28;20066;-86
2024/01/06 11:20:22;;;;;;;21.10;15.10;;;1.60;99.90;;;;;;5006773;28;20050;-84
2024/01/06 11:22:48;;;;;;;21.97;15.73;;;1.60;99.90;;;;;;5058797;28;20044;-84
2024/01/06 11:25:25;;;;;;;22.50;15.53;;;1.60;99.90;;;;;;5023854;28;20058;-84
2024/01/06 11:27:57;;;;;;;28.17;18.97;;;1.60;99.90;;;;;;5048640;28;20078;-85
2024/01/06 11:30:25;;;;;;;;;;;1.60;99.90;;;;;;5004970;28;20050;-84
2024/01/06 11:32:55;;;;;;;22.67;14.87;;;1.50;99.90;;;;;;5029132;28;19924;-84
2024/01/06 11:35:21;;;;;;;26.73;17.97;;;1.60;99.90;;;;;;5018894;28;20090;-85
2024/01/06 11:37:47;;;;;;;20.57;15.13;;;1.60;99.90;;;;;;5040267;28;20064;-84
2024/01/06 11:40:23;;;;;;;70.00;32.10;;;1.60;99.90;;;;;;5050597;28;20050;-83
2024/01/06 11:42:56;;;;;;;77.57;32.47;;;1.60;99.90;;;;;;5041098;28;20054;-83
2024/01/06 11:45:24;;;;;;;52.77;25.13;;;1.60;99.90;;;;;;5049267;28;20073;-83
2024/01/06 11:47:55;;;;;;;50.50;26.27;;;1.60;99.90;;;;;;5021242;28;20047;-83
2024/01/06 11:50:21;;;;;;;59.80;27.17;;;1.60;99.90;;;;;;5029659;28;20040;-84
2024/01/06 11:52:47;;;;;;;51.23;25.23;;;1.60;99.90;;;;;;5051325;28;20401;-84
2024/01/06 11:55:13;;;;;;;44.93;23.47;;;1.60;99.90;;;;;;5036163;28;20057;-83
2024/01/06 11:57:39;;;;;;;57.17;25.80;;;1.60;99.90;;;;;;5066872;28;20111;-84
2024/01/06 12:00:06;;;;;;;27.97;18.07;;;1.60;99.90;;;;;;5037959;28;20456;-84
2024/01/06 12:02:31;;;;;;;22.40;16.40;;;1.60;99.90;;;;;;5039109;28;20050;-84
2024/01/06 12:04:57;;;;;;;28.70;18.53;;;1.50;99.90;;;;;;5052796;28;20050;-83
2024/01/06 12:07:23;;;;;;;24.40;17.80;;;1.50;99.90;;;;;;4982138;28;20046;-84
2024/01/06 12:09:51;;;;;;;28.40;17.77;;;1.60;99.90;;;;;;5055232;28;20091;-83
2024/01/06 12:12:17;;;;;;;43.53;23.73;;;1.50;99.90;;;;;;5061272;28;20343;-84
2024/01/06 12:14:43;;;;;;;23.57;17.30;;;1.50;99.90;;;;;;5022369;28;20438;-83
2024/01/06 12:17:10;;;;;;;26.70;17.93;;;1.50;99.90;;;;;;5046374;28;20073;-84
2024/01/06 12:19:36;;;;;;;34.97;20.53;;;1.60;99.90;;;;;;5052878;28;20081;-84
2024/01/06 12:22:02;;;;;;;29.93;18.27;;;1.50;99.90;;;;;;5031001;28;20493;-84
2024/01/06 12:24:28;;;;;;;26.83;17.97;;;1.50;99.90;;;;;;5039996;28;20146;-84
2024/01/06 12:26:58;;;;;;;50.37;26.17;;;1.50;99.90;;;;;;4994647;28;20501;-84
2024/01/06 12:29:28;;;;;;;34.83;20.67;;;1.60;99.90;;;;;;5029070;28;20045;-83
2024/01/06 12:31:55;;;;;;;32.93;20.50;;;1.60;99.90;;;;;;5011924;28;20040;-84
2024/01/06 12:34:21;;;;;;;32.37;21.63;;;1.60;99.90;;;;;;5038635;28;20046;-83